sensor_id;sensor_type;location;lat;lon;timestamp;P1;durP1;ratioP1;P2;durP2;ratioP2
79578;SDS011;69051;52.406;5.280;2023-08-08T00:01:28;17.60;;;5.07;;
79578;SDS011;69051;52.406;5.280;2023-08-08T00:03:55;12.98;;;4.10;;
79578;SDS011;69051;52.406;5.280;2023-08-08T00:06:21;8.25;;;3.60;;
79578;SDS011;69051;52.406;5.280;2023-08-08T00:08:48;16.45;;;5.00;;
79578;SDS011;69051;52.406;5.280;2023-08-08T00:11:14;19.27;;;4.88;;
79578;SDS011;69051;52.406;5.280;2023-08-08T00:13:41;17.73;;;3.85;;
79578;SDS011;69051;52.406;5.280;2023-08-08T00:16:07;15.32;;;4.20;;
79578;SDS011;69051;52.406;5.280;2023-08-08T00:18:34;15.65;;;3.95;;
79578;SDS011;69051;52.406;5.280;2023-08-08T00:21:01;9.82;;;3.97;;
79578;SDS011;69051;52.406;5.280;2023-08-08T00:23:27;11.95;;;3.40;;
79578;SDS011;69051;52.406;5.280;2023-08-08T00:25:54;12.70;;;3.92;;
79578;SDS011;69051;52.406;5.280;2023-08-08T00:28:20;17.33;;;3.97;;
79578;SDS011;69051;52.406;5.280;2023-08-08T00:30:47;11.05;;;4.15;;
79578;SDS011;69051;52.406;5.280;2023-08-08T00:33:13;12.75;;;3.63;;
79578;SDS011;69051;52.406;5.280;2023-08-08T00:35:40;14.88;;;3.58;;
79578;SDS011;69051;52.406;5.280;2023-08-08T00:38:06;18.65;;;4.40;;
79578;SDS011;69051;52.406;5.280;2023-08-08T00:40:33;12.15;;;3.88;;
79578;SDS011;69051;52.406;5.280;2023-08-08T00:42:59;14.73;;;3.67;;
79578;SDS011;69051;52.406;5.280;2023-08-08T00:45:26;14.15;;;3.65;;
79578;SDS011;69051;52.406;5.280;2023-08-08T00:47:53;17.08;;;3.78;;
79578;SDS011;69051;52.406;5.280;2023-08-08T00:50:20;10.77;;;3.47;;
79578;SDS011;69051;52.406;5.280;2023-08-08T00:52:47;13.02;;;4.25;;
79578;SDS011;69051;52.406;5.280;2023-08-08T00:55:13;10.82;;;3.67;;
79578;SDS011;69051;52.406;5.280;2023-08-08T00:57:41;14.77;;;3.95;;
79578;SDS011;69051;52.406;5.280;2023-08-08T01:00:08;14.52;;;3.15;;
79578;SDS011;69051;52.406;5.280;2023-08-08T01:02:39;18.30;;;3.47;;
79578;SDS011;69051;52.406;5.280;2023-08-08T01:05:06;21.15;;;4.00;;
79578;SDS011;69051;52.406;5.280;2023-08-08T01:07:53;10.40;;;2.97;;
79578;SDS011;69051;52.406;5.280;2023-08-08T01:10:28;11.35;;;2.65;;
79578;SDS011;69051;52.406;5.280;2023-08-08T01:12:57;18.20;;;3.08;;
79578;SDS011;69051;52.406;5.280;2023-08-08T01:15:27;12.15;;;3.42;;
79578;SDS011;69051;52.406;5.280;2023-08-08T01:17:54;9.85;;;2.88;;
79578;SDS011;69051;52.406;5.280;2023-08-08T01:20:21;7.43;;;2.53;;
79578;SDS011;69051;52.406;5.280;2023-08-08T01:25:30;9.77;;;2.83;;
79578;SDS011;69051;52.406;5.280;2023-08-08T01:27:57;9.35;;;2.10;;
79578;SDS011;69051;52.406;5.280;2023-08-08T01:30:23;7.22;;;2.45;;
79578;SDS011;69051;52.406;5.280;2023-08-08T01:32:50;6.78;;;2.65;;
79578;SDS011;69051;52.406;5.280;2023-08-08T01:35:17;13.00;;;2.63;;
79578;SDS011;69051;52.406;5.280;2023-08-08T01:37:48;7.43;;;2.25;;
79578;SDS011;69051;52.406;5.280;2023-08-08T01:40:17;7.38;;;1.80;;
79578;SDS011;69051;52.406;5.280;2023-08-08T01:42:45;9.20;;;2.08;;
79578;SDS011;69051;52.406;5.280;2023-08-08T01:45:13;8.52;;;2.30;;
79578;SDS011;69051;52.406;5.280;2023-08-08T01:47:40;6.72;;;2.03;;
79578;SDS011;69051;52.406;5.280;2023-08-08T01:50:07;7.70;;;2.75;;
79578;SDS011;69051;52.406;5.280;2023-08-08T01:52:35;9.25;;;2.17;;
79578;SDS011;69051;52.406;5.280;2023-08-08T01:55:01;6.57;;;2.15;;
79578;SDS011;69051;52.406;5.280;2023-08-08T01:57:28;9.27;;;3.08;;
79578;SDS011;69051;52.406;5.280;2023-08-08T01:59:55;9.23;;;2.58;;
79578;SDS011;69051;52.406;5.280;2023-08-08T02:02:21;7.78;;;2.00;;
79578;SDS011;69051;52.406;5.280;2023-08-08T02:04:48;7.03;;;2.10;;
79578;SDS011;69051;52.406;5.280;2023-08-08T02:07:14;8.95;;;2.10;;
79578;SDS011;69051;52.406;5.280;2023-08-08T02:09:41;11.32;;;2.60;;
79578;SDS011;69051;52.406;5.280;2023-08-08T02:12:08;10.20;;;2.00;;
79578;SDS011;69051;52.406;5.280;2023-08-08T02:14:35;13.50;;;2.50;;
79578;SDS011;69051;52.406;5.280;2023-08-08T02:17:01;9.18;;;1.95;;
79578;SDS011;69051;52.406;5.280;2023-08-08T02:19:28;10.18;;;1.85;;
79578;SDS011;69051;52.406;5.280;2023-08-08T02:21:55;12.35;;;2.15;;
79578;SDS011;69051;52.406;5.280;2023-08-08T02:24:22;12.32;;;2.20;;
79578;SDS011;69051;52.406;5.280;2023-08-08T02:26:49;9.60;;;2.10;;
79578;SDS011;69051;52.406;5.280;2023-08-08T02:29:15;7.00;;;1.35;;
79578;SDS011;69051;52.406;5.280;2023-08-08T02:31:42;9.35;;;1.75;;
79578;SDS011;69051;52.406;5.280;2023-08-08T02:34:08;6.60;;;1.70;;
79578;SDS011;69051;52.406;5.280;2023-08-08T02:36:35;6.25;;;1.77;;
79578;SDS011;69051;52.406;5.280;2023-08-08T02:39:01;6.97;;;1.70;;
79578;SDS011;69051;52.406;5.280;2023-08-08T02:41:29;8.32;;;1.70;;
79578;SDS011;69051;52.406;5.280;2023-08-08T02:43:55;10.32;;;1.75;;
79578;SDS011;69051;52.406;5.280;2023-08-08T02:46:22;8.43;;;1.75;;
79578;SDS011;69051;52.406;5.280;2023-08-08T02:48:49;7.07;;;1.70;;
79578;SDS011;69051;52.406;5.280;2023-08-08T02:51:15;6.68;;;1.73;;
79578;SDS011;69051;52.406;5.280;2023-08-08T02:53:41;9.10;;;1.58;;
79578;SDS011;69051;52.406;5.280;2023-08-08T02:56:08;14.27;;;2.08;;
79578;SDS011;69051;52.406;5.280;2023-08-08T02:58:35;8.10;;;2.10;;
79578;SDS011;69051;52.406;5.280;2023-08-08T03:01:01;7.00;;;1.90;;
79578;SDS011;69051;52.406;5.280;2023-08-08T03:03:28;6.53;;;1.80;;
79578;SDS011;69051;52.406;5.280;2023-08-08T03:05:54;7.05;;;2.40;;
79578;SDS011;69051;52.406;5.280;2023-08-08T03:08:21;11.45;;;2.85;;
79578;SDS011;69051;52.406;5.280;2023-08-08T03:10:47;8.55;;;2.40;;
79578;SDS011;69051;52.406;5.280;2023-08-08T03:13:14;12.25;;;2.10;;
79578;SDS011;69051;52.406;5.280;2023-08-08T03:15:40;9.88;;;2.05;;
79578;SDS011;69051;52.406;5.280;2023-08-08T03:18:07;7.82;;;3.03;;
79578;SDS011;69051;52.406;5.280;2023-08-08T03:20:33;12.23;;;1.90;;
79578;SDS011;69051;52.406;5.280;2023-08-08T03:23:00;7.50;;;1.73;;
79578;SDS011;69051;52.406;5.280;2023-08-08T03:25:26;6.80;;;2.08;;
79578;SDS011;69051;52.406;5.280;2023-08-08T03:27:53;10.50;;;1.85;;
79578;SDS011;69051;52.406;5.280;2023-08-08T03:30:19;6.28;;;1.77;;
79578;SDS011;69051;52.406;5.280;2023-08-08T03:32:46;6.38;;;1.90;;
79578;SDS011;69051;52.406;5.280;2023-08-08T03:35:13;6.75;;;1.80;;
79578;SDS011;69051;52.406;5.280;2023-08-08T03:37:41;11.00;;;2.95;;
79578;SDS011;69051;52.406;5.280;2023-08-08T03:40:08;10.93;;;1.60;;
79578;SDS011;69051;52.406;5.280;2023-08-08T03:42:35;9.20;;;1.60;;
79578;SDS011;69051;52.406;5.280;2023-08-08T03:45:01;7.93;;;1.60;;
79578;SDS011;69051;52.406;5.280;2023-08-08T03:47:28;6.25;;;1.85;;
79578;SDS011;69051;52.406;5.280;2023-08-08T03:49:55;7.90;;;1.63;;
79578;SDS011;69051;52.406;5.280;2023-08-08T03:52:23;10.15;;;1.65;;
79578;SDS011;69051;52.406;5.280;2023-08-08T03:54:51;13.35;;;2.83;;
79578;SDS011;69051;52.406;5.280;2023-08-08T03:57:17;8.40;;;1.85;;
79578;SDS011;69051;52.406;5.280;2023-08-08T03:59:44;7.95;;;1.58;;
79578;SDS011;69051;52.406;5.280;2023-08-08T04:02:11;5.25;;;1.30;;
79578;SDS011;69051;52.406;5.280;2023-08-08T04:04:37;9.93;;;1.75;;
79578;SDS011;69051;52.406;5.280;2023-08-08T04:07:05;6.55;;;1.25;;
79578;SDS011;69051;52.406;5.280;2023-08-08T04:09:31;4.07;;;1.30;;
79578;SDS011;69051;52.406;5.280;2023-08-08T04:11:57;4.85;;;1.17;;
79578;SDS011;69051;52.406;5.280;2023-08-08T04:14:25;5.35;;;1.60;;
79578;SDS011;69051;52.406;5.280;2023-08-08T04:16:51;8.85;;;1.33;;
79578;SDS011;69051;52.406;5.280;2023-08-08T04:19:18;11.48;;;1.60;;
79578;SDS011;69051;52.406;5.280;2023-08-08T04:21:44;7.72;;;1.45;;
79578;SDS011;69051;52.406;5.280;2023-08-08T04:24:11;11.65;;;1.27;;
79578;SDS011;69051;52.406;5.280;2023-08-08T04:26:38;5.22;;;1.23;;
79578;SDS011;69051;52.406;5.280;2023-08-08T04:29:05;9.38;;;1.75;;
79578;SDS011;69051;52.406;5.280;2023-08-08T04:31:32;9.75;;;1.50;;
79578;SDS011;69051;52.406;5.280;2023-08-08T04:33:59;5.80;;;1.20;;
79578;SDS011;69051;52.406;5.280;2023-08-08T04:36:27;6.35;;;1.50;;
79578;SDS011;69051;52.406;5.280;2023-08-08T04:38:54;4.47;;;1.30;;
79578;SDS011;69051;52.406;5.280;2023-08-08T04:41:21;6.50;;;1.38;;
79578;SDS011;69051;52.406;5.280;2023-08-08T04:43:48;5.07;;;1.50;;
79578;SDS011;69051;52.406;5.280;2023-08-08T04:46:14;7.45;;;1.40;;
79578;SDS011;69051;52.406;5.280;2023-08-08T04:48:41;8.05;;;1.17;;
79578;SDS011;69051;52.406;5.280;2023-08-08T04:51:07;6.93;;;1.40;;
79578;SDS011;69051;52.406;5.280;2023-08-08T04:53:34;11.43;;;1.40;;
79578;SDS011;69051;52.406;5.280;2023-08-08T04:56:01;6.28;;;1.52;;
79578;SDS011;69051;52.406;5.280;2023-08-08T04:58:27;7.70;;;1.60;;
79578;SDS011;69051;52.406;5.280;2023-08-08T05:00:54;6.20;;;1.30;;
79578;SDS011;69051;52.406;5.280;2023-08-08T05:03:21;5.07;;;1.27;;
79578;SDS011;69051;52.406;5.280;2023-08-08T05:05:48;6.07;;;1.30;;
79578;SDS011;69051;52.406;5.280;2023-08-08T05:08:14;8.00;;;1.50;;
79578;SDS011;69051;52.406;5.280;2023-08-08T05:10:41;7.40;;;1.38;;
79578;SDS011;69051;52.406;5.280;2023-08-08T05:13:08;5.68;;;1.42;;
79578;SDS011;69051;52.406;5.280;2023-08-08T05:15:35;7.75;;;1.38;;
79578;SDS011;69051;52.406;5.280;2023-08-08T05:18:01;12.45;;;1.42;;
79578;SDS011;69051;52.406;5.280;2023-08-08T05:20:28;4.53;;;1.23;;
79578;SDS011;69051;52.406;5.280;2023-08-08T05:22:54;7.10;;;1.80;;
79578;SDS011;69051;52.406;5.280;2023-08-08T05:25:21;4.55;;;1.20;;
79578;SDS011;69051;52.406;5.280;2023-08-08T05:27:47;10.60;;;1.55;;
79578;SDS011;69051;52.406;5.280;2023-08-08T05:30:16;5.00;;;1.10;;
79578;SDS011;69051;52.406;5.280;2023-08-08T05:32:42;13.13;;;1.63;;
79578;SDS011;69051;52.406;5.280;2023-08-08T05:35:09;5.05;;;1.20;;
79578;SDS011;69051;52.406;5.280;2023-08-08T05:37:35;6.25;;;1.70;;
79578;SDS011;69051;52.406;5.280;2023-08-08T05:40:02;11.70;;;1.35;;
79578;SDS011;69051;52.406;5.280;2023-08-08T05:42:29;7.03;;;1.67;;
79578;SDS011;69051;52.406;5.280;2023-08-08T05:44:58;5.47;;;1.40;;
79578;SDS011;69051;52.406;5.280;2023-08-08T05:47:24;6.03;;;1.50;;
79578;SDS011;69051;52.406;5.280;2023-08-08T05:49:51;6.13;;;1.27;;
79578;SDS011;69051;52.406;5.280;2023-08-08T05:52:17;6.68;;;1.10;;
79578;SDS011;69051;52.406;5.280;2023-08-08T05:54:44;10.20;;;1.30;;
79578;SDS011;69051;52.406;5.280;2023-08-08T05:57:10;9.05;;;1.50;;
79578;SDS011;69051;52.406;5.280;2023-08-08T05:59:37;7.75;;;1.33;;
79578;SDS011;69051;52.406;5.280;2023-08-08T06:02:03;6.55;;;1.40;;
79578;SDS011;69051;52.406;5.280;2023-08-08T06:04:31;7.15;;;1.23;;
79578;SDS011;69051;52.406;5.280;2023-08-08T06:06:57;3.53;;;0.90;;
79578;SDS011;69051;52.406;5.280;2023-08-08T06:09:24;7.60;;;1.23;;
79578;SDS011;69051;52.406;5.280;2023-08-08T06:11:51;6.43;;;1.50;;
79578;SDS011;69051;52.406;5.280;2023-08-08T06:14:17;3.97;;;0.88;;
79578;SDS011;69051;52.406;5.280;2023-08-08T06:16:44;6.85;;;1.50;;
79578;SDS011;69051;52.406;5.280;2023-08-08T06:19:12;7.57;;;1.40;;
79578;SDS011;69051;52.406;5.280;2023-08-08T06:21:41;6.40;;;1.15;;
79578;SDS011;69051;52.406;5.280;2023-08-08T06:24:08;6.85;;;1.92;;
79578;SDS011;69051;52.406;5.280;2023-08-08T06:26:34;3.65;;;1.20;;
79578;SDS011;69051;52.406;5.280;2023-08-08T06:29:00;6.40;;;1.05;;
79578;SDS011;69051;52.406;5.280;2023-08-08T06:31:27;5.47;;;1.30;;
79578;SDS011;69051;52.406;5.280;2023-08-08T06:33:53;8.02;;;1.20;;
79578;SDS011;69051;52.406;5.280;2023-08-08T06:36:20;7.00;;;1.42;;
79578;SDS011;69051;52.406;5.280;2023-08-08T06:38:46;6.88;;;1.10;;
79578;SDS011;69051;52.406;5.280;2023-08-08T06:41:13;5.45;;;1.02;;
79578;SDS011;69051;52.406;5.280;2023-08-08T06:43:39;8.25;;;1.08;;
79578;SDS011;69051;52.406;5.280;2023-08-08T06:46:06;5.57;;;1.02;;
79578;SDS011;69051;52.406;5.280;2023-08-08T06:48:33;3.10;;;0.93;;
79578;SDS011;69051;52.406;5.280;2023-08-08T06:50:59;8.23;;;1.75;;
79578;SDS011;69051;52.406;5.280;2023-08-08T06:53:26;6.03;;;0.90;;
79578;SDS011;69051;52.406;5.280;2023-08-08T06:55:52;6.38;;;1.55;;
79578;SDS011;69051;52.406;5.280;2023-08-08T06:58:19;5.45;;;1.08;;
79578;SDS011;69051;52.406;5.280;2023-08-08T07:00:45;4.47;;;0.90;;
79578;SDS011;69051;52.406;5.280;2023-08-08T07:03:12;7.25;;;1.05;;
79578;SDS011;69051;52.406;5.280;2023-08-08T07:05:38;7.55;;;0.93;;
79578;SDS011;69051;52.406;5.280;2023-08-08T07:08:05;8.95;;;1.20;;
79578;SDS011;69051;52.406;5.280;2023-08-08T07:10:32;3.90;;;0.90;;
79578;SDS011;69051;52.406;5.280;2023-08-08T07:12:59;5.28;;;0.90;;
79578;SDS011;69051;52.406;5.280;2023-08-08T07:15:25;7.85;;;1.40;;
79578;SDS011;69051;52.406;5.280;2023-08-08T07:17:52;5.30;;;1.15;;
79578;SDS011;69051;52.406;5.280;2023-08-08T07:20:18;6.82;;;1.08;;
79578;SDS011;69051;52.406;5.280;2023-08-08T07:22:45;3.95;;;1.10;;
79578;SDS011;69051;52.406;5.280;2023-08-08T07:25:12;3.80;;;0.90;;
79578;SDS011;69051;52.406;5.280;2023-08-08T07:27:38;6.88;;;1.00;;
79578;SDS011;69051;52.406;5.280;2023-08-08T07:30:05;12.77;;;2.67;;
79578;SDS011;69051;52.406;5.280;2023-08-08T07:32:33;4.38;;;0.88;;
79578;SDS011;69051;52.406;5.280;2023-08-08T07:34:59;5.18;;;1.20;;
79578;SDS011;69051;52.406;5.280;2023-08-08T07:37:28;7.35;;;1.10;;
79578;SDS011;69051;52.406;5.280;2023-08-08T07:39:55;5.47;;;1.10;;
79578;SDS011;69051;52.406;5.280;2023-08-08T07:42:22;4.72;;;0.60;;
79578;SDS011;69051;52.406;5.280;2023-08-08T07:44:48;6.90;;;0.98;;
79578;SDS011;69051;52.406;5.280;2023-08-08T07:47:15;4.47;;;0.80;;
79578;SDS011;69051;52.406;5.280;2023-08-08T07:49:41;5.93;;;0.93;;
79578;SDS011;69051;52.406;5.280;2023-08-08T07:52:07;6.97;;;0.95;;
79578;SDS011;69051;52.406;5.280;2023-08-08T07:54:34;5.72;;;1.20;;
79578;SDS011;69051;52.406;5.280;2023-08-08T07:57:01;4.03;;;1.10;;
79578;SDS011;69051;52.406;5.280;2023-08-08T07:59:27;7.75;;;0.90;;
79578;SDS011;69051;52.406;5.280;2023-08-08T08:01:54;5.53;;;0.88;;
79578;SDS011;69051;52.406;5.280;2023-08-08T08:04:20;2.47;;;0.68;;
79578;SDS011;69051;52.406;5.280;2023-08-08T08:06:47;3.13;;;0.77;;
79578;SDS011;69051;52.406;5.280;2023-08-08T08:09:13;3.88;;;1.00;;
79578;SDS011;69051;52.406;5.280;2023-08-08T08:11:40;5.28;;;1.20;;
79578;SDS011;69051;52.406;5.280;2023-08-08T08:14:06;7.90;;;0.90;;
79578;SDS011;69051;52.406;5.280;2023-08-08T08:16:33;6.60;;;0.95;;
79578;SDS011;69051;52.406;5.280;2023-08-08T08:19:00;5.50;;;0.93;;
79578;SDS011;69051;52.406;5.280;2023-08-08T08:21:26;6.00;;;1.00;;
79578;SDS011;69051;52.406;5.280;2023-08-08T08:23:53;8.27;;;1.20;;
79578;SDS011;69051;52.406;5.280;2023-08-08T08:26:19;3.33;;;0.85;;
79578;SDS011;69051;52.406;5.280;2023-08-08T08:28:45;4.80;;;1.15;;
79578;SDS011;69051;52.406;5.280;2023-08-08T08:31:12;6.75;;;1.23;;
79578;SDS011;69051;52.406;5.280;2023-08-08T08:33:38;6.43;;;1.30;;
79578;SDS011;69051;52.406;5.280;2023-08-08T08:36:05;5.55;;;1.50;;
79578;SDS011;69051;52.406;5.280;2023-08-08T08:38:32;3.60;;;0.93;;
79578;SDS011;69051;52.406;5.280;2023-08-08T08:40:58;6.38;;;1.00;;
79578;SDS011;69051;52.406;5.280;2023-08-08T08:43:25;4.43;;;0.85;;
79578;SDS011;69051;52.406;5.280;2023-08-08T08:45:52;3.70;;;1.00;;
79578;SDS011;69051;52.406;5.280;2023-08-08T08:48:20;2.55;;;0.95;;
79578;SDS011;69051;52.406;5.280;2023-08-08T08:50:48;4.72;;;1.25;;
79578;SDS011;69051;52.406;5.280;2023-08-08T08:53:15;4.95;;;1.10;;
79578;SDS011;69051;52.406;5.280;2023-08-08T08:55:43;4.47;;;1.40;;
79578;SDS011;69051;52.406;5.280;2023-08-08T08:58:12;7.25;;;0.90;;
79578;SDS011;69051;52.406;5.280;2023-08-08T09:00:40;4.85;;;1.05;;
79578;SDS011;69051;52.406;5.280;2023-08-08T09:03:07;3.88;;;0.82;;
79578;SDS011;69051;52.406;5.280;2023-08-08T09:05:33;3.25;;;0.85;;
79578;SDS011;69051;52.406;5.280;2023-08-08T09:08:01;6.13;;;0.90;;
79578;SDS011;69051;52.406;5.280;2023-08-08T09:10:27;1.88;;;0.55;;
79578;SDS011;69051;52.406;5.280;2023-08-08T09:12:57;5.90;;;1.05;;
79578;SDS011;69051;52.406;5.280;2023-08-08T09:15:23;3.55;;;0.70;;
79578;SDS011;69051;52.406;5.280;2023-08-08T09:17:50;2.97;;;0.90;;
79578;SDS011;69051;52.406;5.280;2023-08-08T09:20:17;4.32;;;0.65;;
79578;SDS011;69051;52.406;5.280;2023-08-08T09:22:43;5.28;;;1.20;;
79578;SDS011;69051;52.406;5.280;2023-08-08T09:25:10;5.43;;;1.13;;
79578;SDS011;69051;52.406;5.280;2023-08-08T09:27:38;8.10;;;0.90;;
79578;SDS011;69051;52.406;5.280;2023-08-08T09:30:05;5.30;;;0.93;;
79578;SDS011;69051;52.406;5.280;2023-08-08T09:32:32;1.55;;;0.45;;
79578;SDS011;69051;52.406;5.280;2023-08-08T09:34:59;5.30;;;1.00;;
79578;SDS011;69051;52.406;5.280;2023-08-08T09:37:26;5.30;;;1.02;;
79578;SDS011;69051;52.406;5.280;2023-08-08T09:39:57;3.80;;;0.82;;
79578;SDS011;69051;52.406;5.280;2023-08-08T09:42:33;3.78;;;0.90;;
79578;SDS011;69051;52.406;5.280;2023-08-08T09:45:01;3.88;;;0.95;;
79578;SDS011;69051;52.406;5.280;2023-08-08T09:47:28;4.07;;;0.90;;
79578;SDS011;69051;52.406;5.280;2023-08-08T09:50:00;4.00;;;0.70;;
79578;SDS011;69051;52.406;5.280;2023-08-08T09:52:30;3.45;;;0.70;;
79578;SDS011;69051;52.406;5.280;2023-08-08T09:54:57;2.45;;;0.98;;
79578;SDS011;69051;52.406;5.280;2023-08-08T09:57:24;5.75;;;1.17;;
79578;SDS011;69051;52.406;5.280;2023-08-08T09:59:51;4.15;;;0.93;;
79578;SDS011;69051;52.406;5.280;2023-08-08T10:02:18;7.78;;;1.23;;
79578;SDS011;69051;52.406;5.280;2023-08-08T10:04:45;3.97;;;0.90;;
79578;SDS011;69051;52.406;5.280;2023-08-08T10:07:12;5.20;;;1.08;;
79578;SDS011;69051;52.406;5.280;2023-08-08T10:09:39;6.75;;;1.23;;
79578;SDS011;69051;52.406;5.280;2023-08-08T10:12:06;6.03;;;1.38;;
79578;SDS011;69051;52.406;5.280;2023-08-08T10:14:35;4.65;;;1.00;;
79578;SDS011;69051;52.406;5.280;2023-08-08T10:17:04;5.50;;;1.10;;
79578;SDS011;69051;52.406;5.280;2023-08-08T10:19:31;3.35;;;1.02;;
79578;SDS011;69051;52.406;5.280;2023-08-08T10:21:59;3.22;;;0.98;;
79578;SDS011;69051;52.406;5.280;2023-08-08T10:24:32;4.38;;;1.08;;
79578;SDS011;69051;52.406;5.280;2023-08-08T10:27:00;8.90;;;1.08;;
79578;SDS011;69051;52.406;5.280;2023-08-08T10:29:29;5.38;;;1.00;;
79578;SDS011;69051;52.406;5.280;2023-08-08T10:32:00;4.25;;;1.17;;
79578;SDS011;69051;52.406;5.280;2023-08-08T10:34:42;5.05;;;0.98;;
79578;SDS011;69051;52.406;5.280;2023-08-08T10:37:10;4.00;;;0.95;;
79578;SDS011;69051;52.406;5.280;2023-08-08T10:39:48;6.30;;;1.00;;
79578;SDS011;69051;52.406;5.280;2023-08-08T10:42:25;3.67;;;1.10;;
79578;SDS011;69051;52.406;5.280;2023-08-08T10:44:52;5.78;;;1.25;;
79578;SDS011;69051;52.406;5.280;2023-08-08T10:47:26;5.80;;;0.90;;
79578;SDS011;69051;52.406;5.280;2023-08-08T10:50:03;5.03;;;1.10;;
79578;SDS011;69051;52.406;5.280;2023-08-08T10:52:32;6.75;;;1.30;;
79578;SDS011;69051;52.406;5.280;2023-08-08T10:55:04;4.57;;;1.08;;
79578;SDS011;69051;52.406;5.280;2023-08-08T10:57:31;2.88;;;0.88;;
79578;SDS011;69051;52.406;5.280;2023-08-08T11:00:16;5.03;;;2.40;;
79578;SDS011;69051;52.406;5.280;2023-08-08T11:02:46;6.88;;;1.10;;
79578;SDS011;69051;52.406;5.280;2023-08-08T11:05:17;8.85;;;1.23;;
79578;SDS011;69051;52.406;5.280;2023-08-08T11:07:44;5.28;;;1.23;;
79578;SDS011;69051;52.406;5.280;2023-08-08T11:10:11;3.75;;;1.10;;
79578;SDS011;69051;52.406;5.280;2023-08-08T11:12:38;2.95;;;1.35;;
79578;SDS011;69051;52.406;5.280;2023-08-08T11:15:04;5.85;;;1.10;;
79578;SDS011;69051;52.406;5.280;2023-08-08T11:17:31;7.45;;;1.33;;
79578;SDS011;69051;52.406;5.280;2023-08-08T11:19:58;6.30;;;1.25;;
79578;SDS011;69051;52.406;5.280;2023-08-08T11:22:25;10.50;;;1.10;;
79578;SDS011;69051;52.406;5.280;2023-08-08T11:24:52;4.25;;;1.00;;
79578;SDS011;69051;52.406;5.280;2023-08-08T11:27:18;3.38;;;0.88;;
79578;SDS011;69051;52.406;5.280;2023-08-08T11:29:51;5.75;;;1.20;;
79578;SDS011;69051;52.406;5.280;2023-08-08T11:32:18;6.90;;;1.50;;
79578;SDS011;69051;52.406;5.280;2023-08-08T11:34:46;9.65;;;1.00;;
79578;SDS011;69051;52.406;5.280;2023-08-08T11:37:12;5.38;;;1.08;;
79578;SDS011;69051;52.406;5.280;2023-08-08T11:39:41;4.35;;;1.10;;
79578;SDS011;69051;52.406;5.280;2023-08-08T11:42:08;4.57;;;1.10;;
79578;SDS011;69051;52.406;5.280;2023-08-08T11:44:34;3.58;;;1.20;;
79578;SDS011;69051;52.406;5.280;2023-08-08T11:47:01;4.97;;;1.10;;
79578;SDS011;69051;52.406;5.280;2023-08-08T11:49:30;14.70;;;1.40;;
79578;SDS011;69051;52.406;5.280;2023-08-08T11:52:06;5.00;;;0.80;;
79578;SDS011;69051;52.406;5.280;2023-08-08T11:54:33;14.02;;;1.23;;
79578;SDS011;69051;52.406;5.280;2023-08-08T11:57:00;11.20;;;1.27;;
79578;SDS011;69051;52.406;5.280;2023-08-08T11:59:27;12.07;;;1.38;;
79578;SDS011;69051;52.406;5.280;2023-08-08T12:01:55;10.43;;;1.35;;
79578;SDS011;69051;52.406;5.280;2023-08-08T12:04:21;4.38;;;1.02;;
79578;SDS011;69051;52.406;5.280;2023-08-08T12:06:50;5.93;;;1.00;;
79578;SDS011;69051;52.406;5.280;2023-08-08T12:09:33;1.92;;;0.80;;
79578;SDS011;69051;52.406;5.280;2023-08-08T12:12:00;2.47;;;0.90;;
79578;SDS011;69051;52.406;5.280;2023-08-08T12:14:27;4.93;;;1.10;;
79578;SDS011;69051;52.406;5.280;2023-08-08T12:16:54;2.85;;;0.80;;
79578;SDS011;69051;52.406;5.280;2023-08-08T12:19:24;4.57;;;1.10;;
79578;SDS011;69051;52.406;5.280;2023-08-08T12:21:51;6.03;;;1.45;;
79578;SDS011;69051;52.406;5.280;2023-08-08T12:24:18;6.35;;;1.23;;
79578;SDS011;69051;52.406;5.280;2023-08-08T12:26:44;3.00;;;0.80;;
79578;SDS011;69051;52.406;5.280;2023-08-08T12:29:11;6.25;;;1.05;;
79578;SDS011;69051;52.406;5.280;2023-08-08T12:31:38;4.93;;;0.80;;
79578;SDS011;69051;52.406;5.280;2023-08-08T12:34:05;8.85;;;2.10;;
79578;SDS011;69051;52.406;5.280;2023-08-08T12:36:31;2.35;;;0.95;;
79578;SDS011;69051;52.406;5.280;2023-08-08T12:38:58;5.28;;;1.55;;
79578;SDS011;69051;52.406;5.280;2023-08-08T12:41:24;4.57;;;0.90;;
79578;SDS011;69051;52.406;5.280;2023-08-08T12:43:51;3.65;;;0.88;;
79578;SDS011;69051;52.406;5.280;2023-08-08T12:46:18;4.60;;;0.90;;
79578;SDS011;69051;52.406;5.280;2023-08-08T12:48:45;3.45;;;0.98;;
79578;SDS011;69051;52.406;5.280;2023-08-08T12:51:11;7.47;;;1.23;;
79578;SDS011;69051;52.406;5.280;2023-08-08T12:53:38;3.35;;;0.80;;
79578;SDS011;69051;52.406;5.280;2023-08-08T12:56:04;3.03;;;0.80;;
79578;SDS011;69051;52.406;5.280;2023-08-08T12:58:31;5.68;;;1.10;;
79578;SDS011;69051;52.406;5.280;2023-08-08T13:00:57;3.75;;;1.20;;
79578;SDS011;69051;52.406;5.280;2023-08-08T13:03:25;5.22;;;0.90;;
79578;SDS011;69051;52.406;5.280;2023-08-08T13:05:52;6.20;;;1.10;;
79578;SDS011;69051;52.406;5.280;2023-08-08T13:08:18;3.92;;;1.02;;
79578;SDS011;69051;52.406;5.280;2023-08-08T13:10:45;2.08;;;0.80;;
79578;SDS011;69051;52.406;5.280;2023-08-08T13:13:12;7.43;;;1.10;;
79578;SDS011;69051;52.406;5.280;2023-08-08T13:15:39;4.40;;;0.95;;
79578;SDS011;69051;52.406;5.280;2023-08-08T13:18:06;12.68;;;1.27;;
79578;SDS011;69051;52.406;5.280;2023-08-08T13:20:35;3.90;;;1.10;;
79578;SDS011;69051;52.406;5.280;2023-08-08T13:23:01;6.22;;;1.10;;
79578;SDS011;69051;52.406;5.280;2023-08-08T13:25:28;5.13;;;1.00;;
79578;SDS011;69051;52.406;5.280;2023-08-08T13:27:54;11.13;;;1.65;;
79578;SDS011;69051;52.406;5.280;2023-08-08T13:30:21;5.63;;;0.90;;
79578;SDS011;69051;52.406;5.280;2023-08-08T13:32:48;4.28;;;1.10;;
79578;SDS011;69051;52.406;5.280;2023-08-08T13:35:14;4.57;;;0.90;;
79578;SDS011;69051;52.406;5.280;2023-08-08T13:37:41;4.40;;;1.10;;
79578;SDS011;69051;52.406;5.280;2023-08-08T13:40:07;3.28;;;0.90;;
79578;SDS011;69051;52.406;5.280;2023-08-08T13:42:35;4.50;;;0.93;;
79578;SDS011;69051;52.406;5.280;2023-08-08T13:45:01;7.38;;;1.20;;
79578;SDS011;69051;52.406;5.280;2023-08-08T13:47:28;8.20;;;1.92;;
79578;SDS011;69051;52.406;5.280;2023-08-08T13:49:54;5.63;;;1.40;;
79578;SDS011;69051;52.406;5.280;2023-08-08T13:52:21;4.97;;;1.02;;
79578;SDS011;69051;52.406;5.280;2023-08-08T13:54:47;8.80;;;1.35;;
79578;SDS011;69051;52.406;5.280;2023-08-08T13:57:13;9.77;;;1.42;;
79578;SDS011;69051;52.406;5.280;2023-08-08T13:59:42;3.15;;;0.80;;
79578;SDS011;69051;52.406;5.280;2023-08-08T14:02:09;5.13;;;1.55;;
79578;SDS011;69051;52.406;5.280;2023-08-08T14:04:35;6.80;;;1.40;;
79578;SDS011;69051;52.406;5.280;2023-08-08T14:07:02;5.00;;;1.05;;
79578;SDS011;69051;52.406;5.280;2023-08-08T14:09:28;5.10;;;1.10;;
79578;SDS011;69051;52.406;5.280;2023-08-08T14:11:54;7.93;;;1.88;;
79578;SDS011;69051;52.406;5.280;2023-08-08T14:14:21;6.60;;;1.08;;
79578;SDS011;69051;52.406;5.280;2023-08-08T14:16:47;6.18;;;1.35;;
79578;SDS011;69051;52.406;5.280;2023-08-08T14:19:14;5.03;;;1.20;;
79578;SDS011;69051;52.406;5.280;2023-08-08T14:21:42;5.75;;;1.67;;
79578;SDS011;69051;52.406;5.280;2023-08-08T14:24:09;10.45;;;1.85;;
79578;SDS011;69051;52.406;5.280;2023-08-08T14:26:36;5.63;;;1.05;;
79578;SDS011;69051;52.406;5.280;2023-08-08T14:29:02;6.93;;;1.20;;
79578;SDS011;69051;52.406;5.280;2023-08-08T14:31:29;4.78;;;1.20;;
79578;SDS011;69051;52.406;5.280;2023-08-08T14:33:56;3.92;;;0.98;;
79578;SDS011;69051;52.406;5.280;2023-08-08T14:36:22;8.13;;;1.25;;
79578;SDS011;69051;52.406;5.280;2023-08-08T14:38:49;5.55;;;1.20;;
79578;SDS011;69051;52.406;5.280;2023-08-08T14:41:15;5.15;;;0.90;;
79578;SDS011;69051;52.406;5.280;2023-08-08T14:43:42;5.78;;;1.10;;
79578;SDS011;69051;52.406;5.280;2023-08-08T14:46:08;7.97;;;1.92;;
79578;SDS011;69051;52.406;5.280;2023-08-08T14:48:35;3.75;;;1.23;;